CheckWX is a tool to help pilots better visualize weather data.  It is not intended as a substitute for an official pre-flight weather briefing.

06:26:44 UTC

KSYM METAR
Morehead-Rowan County Clyde A Thomas Regional Airport
Morehead, Kentucky, USA
Current

12 mins ago

KSYM 270615Z AUTO 00000KT 10SM OVC110 22/19 A3006 RMK AO2
Observed
May-27 @ 06:15 UTC
Visibility
Flight Rules
VFR
Cloud Levels
  • Overcast at 11,000' AGL
Temperature
22°C / 72°F
Dewpoint
19°C / 66°F
Humidity
83%
Altimeter
30.06" Hg
Pressure
1017.92 hPa
Previous

32 mins ago

KSYM 270555Z AUTO 10003KT 10SM FEW048 SCT070 BKN095 22/18 A3006 RMK AO2
Observed
May-27 @ 05:55 UTC
Wind
  • 100° at 3 KTS
Visibility
Flight Rules
VFR
Cloud Levels
  • Few at 4,800' AGL
  • Scattered at 7,000' AGL
  • Broken at 9,500' AGL
Temperature
22°C / 72°F
Dewpoint
18°C / 64°F
Humidity
78%
Altimeter
30.06" Hg
Pressure
1017.92 hPa
Previous

52 mins ago

KSYM 270535Z AUTO 00000KT 10SM SCT047 BKN075 OVC110 22/18 A3007 RMK AO2
Observed
May-27 @ 05:35 UTC
Visibility
Flight Rules
VFR
Cloud Levels
  • Scattered at 4,700' AGL
  • Broken at 7,500' AGL
  • Overcast at 11,000' AGL
Temperature
22°C / 72°F
Dewpoint
18°C / 64°F
Humidity
78%
Altimeter
30.07" Hg
Pressure
1018.32 hPa